createdAt,value
2022-09-30T00:01:09.420Z,8.57
2022-09-30T00:03:39.177Z,8.30
2022-09-30T00:06:08.678Z,8.55
2022-09-30T00:08:37.304Z,8.15
2022-09-30T00:11:08.441Z,7.82
2022-09-30T00:13:37.558Z,7.97
2022-09-30T00:16:05.384Z,8.63
2022-09-30T00:18:32.657Z,10.15
2022-09-30T00:20:59.936Z,11.52
2022-09-30T00:23:26.838Z,11.63
2022-09-30T00:25:59.426Z,10.98
2022-09-30T00:28:27.339Z,9.80
2022-09-30T00:30:55.080Z,9.60
2022-09-30T00:33:21.981Z,10.48
2022-09-30T00:35:48.803Z,10.43
2022-09-30T00:38:15.726Z,11.85
2022-09-30T00:40:43.292Z,11.40
2022-09-30T00:43:17.450Z,10.43
2022-09-30T00:46:05.502Z,11.20
2022-09-30T00:48:38.573Z,10.70
2022-09-30T00:51:07.876Z,10.80
2022-09-30T00:53:44.713Z,11.23
2022-09-30T00:56:21.706Z,11.45
2022-09-30T00:58:51.928Z,11.02
2022-09-30T01:01:20.964Z,9.82
2022-09-30T01:03:53.649Z,11.13
2022-09-30T01:06:22.624Z,9.50
2022-09-30T01:08:49.832Z,9.85
2022-09-30T01:11:17.440Z,9.18
2022-09-30T01:13:48.132Z,11.05
2022-09-30T01:16:39.960Z,10.20
2022-09-30T01:19:28.540Z,8.77
2022-09-30T01:22:20.787Z,9.23
2022-09-30T01:25:13.287Z,9.60
2022-09-30T01:27:55.734Z,9.70
2022-09-30T01:30:47.502Z,9.20
2022-09-30T01:33:25.863Z,10.63
2022-09-30T01:35:53.023Z,9.80
2022-09-30T01:38:34.396Z,8.75
2022-09-30T01:41:11.016Z,9.82
2022-09-30T01:43:57.751Z,9.13
2022-09-30T01:46:38.507Z,9.18
2022-09-30T01:49:21.980Z,9.70
2022-09-30T01:52:14.998Z,9.20
2022-09-30T01:55:02.218Z,9.52
2022-09-30T01:57:50.698Z,9.45
2022-09-30T02:00:18.997Z,9.25
2022-09-30T02:03:00.420Z,9.00
2022-09-30T02:05:27.532Z,9.20
2022-09-30T02:08:04.424Z,8.88
2022-09-30T02:10:53.152Z,8.32
2022-09-30T02:13:43.676Z,8.90
2022-09-30T02:16:15.670Z,9.18
2022-09-30T02:18:47.077Z,9.27
2022-09-30T02:21:23.349Z,9.25
2022-09-30T02:23:54.922Z,8.45
2022-09-30T02:26:25.657Z,8.73
2022-09-30T02:29:07.812Z,8.82
2022-09-30T02:31:39.316Z,9.50
2022-09-30T02:34:13.894Z,9.68
2022-09-30T02:36:56.172Z,9.50
2022-09-30T02:39:53.298Z,8.48
2022-09-30T02:42:29.575Z,9.23
2022-09-30T02:45:04.502Z,8.35
2022-09-30T02:47:36.424Z,8.75
2022-09-30T02:50:36.386Z,8.73
2022-09-30T02:53:19.079Z,8.85
2022-09-30T02:56:07.961Z,8.48
2022-09-30T02:58:39.625Z,8.00
2022-09-30T03:01:09.580Z,9.20
2022-09-30T03:03:46.865Z,9.07
2022-09-30T03:06:17.049Z,9.73
2022-09-30T03:08:45.125Z,9.43
2022-09-30T03:11:21.528Z,8.30
2022-09-30T03:14:16.096Z,8.75
2022-09-30T03:16:55.385Z,8.75
2022-09-30T03:19:47.208Z,8.93
2022-09-30T03:22:29.652Z,8.55
2022-09-30T03:25:02.234Z,9.85
2022-09-30T03:27:42.686Z,8.90
2022-09-30T03:30:32.176Z,9.82
2022-09-30T03:33:30.360Z,10.40
2022-09-30T03:36:05.503Z,10.30
2022-09-30T03:38:53.980Z,9.70
2022-09-30T03:41:39.629Z,9.05
2022-09-30T03:44:18.617Z,9.15
2022-09-30T03:46:50.355Z,9.05
2022-09-30T03:49:35.472Z,8.80
2022-09-30T03:52:10.885Z,10.05
2022-09-30T03:54:53.706Z,9.48
2022-09-30T03:57:20.656Z,10.63
2022-09-30T03:59:47.521Z,10.35
2022-09-30T04:02:14.309Z,10.13
2022-09-30T04:04:41.967Z,9.63
2022-09-30T04:07:10.441Z,9.02
2022-09-30T04:09:41.191Z,10.10
2022-09-30T04:12:08.764Z,9.50
2022-09-30T04:14:35.886Z,9.40
2022-09-30T04:17:06.640Z,10.05
2022-09-30T04:19:40.274Z,9.88
2022-09-30T04:22:07.846Z,9.95
2022-09-30T04:24:35.522Z,10.57
2022-09-30T04:27:03.112Z,11.35
2022-09-30T04:29:29.981Z,12.25
2022-09-30T04:31:57.593Z,12.35
2022-09-30T04:34:24.745Z,12.18
2022-09-30T04:36:51.805Z,12.77
2022-09-30T04:39:18.891Z,13.90
2022-09-30T04:41:45.729Z,12.95
2022-09-30T04:44:13.641Z,12.52
2022-09-30T04:46:40.538Z,11.88
2022-09-30T04:49:09.517Z,13.48
2022-09-30T04:51:38.374Z,13.10
2022-09-30T04:54:05.506Z,14.80
2022-09-30T04:56:33.280Z,13.65
2022-09-30T04:59:00.187Z,14.85
2022-09-30T05:01:27.016Z,14.68
2022-09-30T05:03:54.726Z,14.65
2022-09-30T05:06:21.847Z,14.25
2022-09-30T05:08:48.741Z,14.05
2022-09-30T05:11:18.791Z,14.27
2022-09-30T05:13:46.797Z,12.50
2022-09-30T05:16:15.035Z,12.13
2022-09-30T05:18:45.885Z,11.98
2022-09-30T05:21:15.531Z,11.85
2022-09-30T05:23:43.004Z,12.48
2022-09-30T05:26:12.583Z,12.18
2022-09-30T05:28:42.059Z,12.93
2022-09-30T05:31:09.344Z,11.77
2022-09-30T05:33:36.469Z,12.10
2022-09-30T05:36:06.762Z,11.75
2022-09-30T05:38:34.783Z,11.55
2022-09-30T05:41:11.586Z,11.35
2022-09-30T05:43:45.519Z,10.70
2022-09-30T05:46:12.858Z,11.85
2022-09-30T05:48:40.287Z,13.50
2022-09-30T05:51:07.678Z,16.73
2022-09-30T05:53:39.975Z,19.30
2022-09-30T05:56:08.308Z,16.17
2022-09-30T05:58:36.016Z,14.35
2022-09-30T06:01:13.767Z,13.07
2022-09-30T06:03:44.830Z,11.77
2022-09-30T06:06:13.082Z,12.70
2022-09-30T06:08:41.388Z,13.05
2022-09-30T06:11:13.001Z,12.18
2022-09-30T06:13:41.509Z,12.15
2022-09-30T06:16:10.598Z,9.75
2022-09-30T06:18:41.283Z,10.85
2022-09-30T06:21:11.494Z,10.50
2022-09-30T06:23:39.053Z,11.38
2022-09-30T06:26:08.417Z,11.00
2022-09-30T06:28:35.845Z,11.45
2022-09-30T06:31:03.542Z,12.38
2022-09-30T06:33:32.007Z,15.02
2022-09-30T06:35:59.821Z,13.25
2022-09-30T06:38:28.812Z,12.52
2022-09-30T06:40:56.718Z,18.27
2022-09-30T06:43:23.711Z,17.20
2022-09-30T06:45:51.804Z,12.50
2022-09-30T06:48:32.359Z,11.98
2022-09-30T06:51:02.780Z,11.18
2022-09-30T06:53:30.106Z,10.43
2022-09-30T06:55:58.076Z,10.35
2022-09-30T06:58:25.580Z,10.60
2022-09-30T07:01:04.411Z,11.00
2022-09-30T07:03:33.962Z,10.02
2022-09-30T07:06:02.951Z,10.95
2022-09-30T07:08:34.411Z,10.00
2022-09-30T07:11:08.603Z,11.43
2022-09-30T07:13:35.550Z,11.43
2022-09-30T07:16:02.589Z,11.23
2022-09-30T07:18:29.986Z,10.23
2022-09-30T07:20:57.473Z,10.55
2022-09-30T07:23:27.173Z,10.38
2022-09-30T07:26:00.465Z,10.63
2022-09-30T07:28:32.762Z,10.13
2022-09-30T07:31:30.657Z,10.48
2022-09-30T07:33:54.392Z,10.80
2022-09-30T07:36:32.146Z,9.93
2022-09-30T07:39:00.328Z,10.00
2022-09-30T07:41:29.165Z,10.05
2022-09-30T07:43:59.263Z,10.13
2022-09-30T07:46:29.816Z,10.73
2022-09-30T07:49:01.528Z,10.13
2022-09-30T07:51:37.298Z,10.60
2022-09-30T07:54:13.353Z,10.90
2022-09-30T07:57:08.052Z,10.13
2022-09-30T07:59:30.634Z,10.02
2022-09-30T08:01:58.237Z,9.43
2022-09-30T08:04:27.101Z,9.77
2022-09-30T08:07:00.172Z,9.18
2022-09-30T08:09:29.843Z,10.13
2022-09-30T08:11:57.269Z,9.02
2022-09-30T08:14:27.800Z,9.02
2022-09-30T08:16:57.065Z,8.13
2022-09-30T08:19:25.370Z,8.05
2022-09-30T08:21:55.938Z,6.57
2022-09-30T08:24:26.136Z,6.63
2022-09-30T08:26:53.720Z,6.53
2022-09-30T08:29:42.597Z,6.32
2022-09-30T08:32:08.717Z,7.43
2022-09-30T08:34:37.291Z,6.65
2022-09-30T08:37:08.729Z,6.10
2022-09-30T08:39:39.413Z,6.40
2022-09-30T08:42:41.320Z,6.28
2022-09-30T08:45:42.317Z,5.97
2022-09-30T08:48:47.326Z,6.40
2022-09-30T08:51:27.959Z,5.63
2022-09-30T08:53:57.493Z,6.00
2022-09-30T08:56:32.500Z,6.30
2022-09-30T08:59:27.944Z,6.15
2022-09-30T09:02:14.032Z,6.63
2022-09-30T09:04:44.862Z,6.28
2022-09-30T09:07:30.173Z,6.68
2022-09-30T09:10:12.277Z,7.25
2022-09-30T09:13:06.777Z,6.80
2022-09-30T09:16:00.539Z,5.97
2022-09-30T09:18:44.929Z,6.05
2022-09-30T09:21:40.916Z,6.22
2022-09-30T09:24:16.276Z,6.50
2022-09-30T09:26:43.291Z,6.82
2022-09-30T09:29:42.183Z,5.80
2022-09-30T09:32:14.831Z,6.18
2022-09-30T09:34:41.842Z,6.72
2022-09-30T09:37:22.066Z,6.78
2022-09-30T09:40:09.174Z,6.43
2022-09-30T09:43:03.507Z,6.18
2022-09-30T09:45:38.945Z,5.70
2022-09-30T09:48:12.056Z,4.47
2022-09-30T09:51:03.663Z,5.45
2022-09-30T09:53:45.315Z,5.25
2022-09-30T09:56:19.132Z,4.63
2022-09-30T09:59:05.443Z,4.60
2022-09-30T10:01:33.792Z,5.00
2022-09-30T10:04:19.874Z,4.43
2022-09-30T10:07:00.412Z,4.25
2022-09-30T10:09:39.271Z,4.57
2022-09-30T10:12:06.022Z,4.97
2022-09-30T10:14:35.703Z,4.63
2022-09-30T10:17:05.785Z,4.25
2022-09-30T10:19:35.233Z,4.40
2022-09-30T10:22:08.441Z,4.22
2022-09-30T10:24:37.546Z,3.95
2022-09-30T10:27:05.205Z,4.10
2022-09-30T10:29:35.334Z,4.28
2022-09-30T10:32:09.927Z,4.60
2022-09-30T10:34:42.749Z,4.70
2022-09-30T10:37:19.821Z,4.32
2022-09-30T10:39:56.066Z,4.50
2022-09-30T10:42:26.967Z,4.47
2022-09-30T10:45:05.042Z,4.10
2022-09-30T10:47:37.038Z,4.68
2022-09-30T10:50:16.610Z,4.20
2022-09-30T10:53:03.297Z,4.38
2022-09-30T10:55:43.171Z,4.25
2022-09-30T10:58:30.929Z,4.00
2022-09-30T11:01:04.761Z,4.13
2022-09-30T11:03:39.858Z,4.13
2022-09-30T11:06:11.963Z,3.70
2022-09-30T11:08:51.243Z,3.95
2022-09-30T11:11:28.052Z,3.80
2022-09-30T11:14:07.710Z,3.47
2022-09-30T11:16:52.924Z,3.85
2022-09-30T11:19:33.480Z,2.85
2022-09-30T11:22:17.062Z,2.85
2022-09-30T11:24:50.389Z,3.40
2022-09-30T11:27:47.923Z,4.15
2022-09-30T11:30:41.661Z,2.80
2022-09-30T11:33:40.763Z,2.80
2022-09-30T11:36:28.098Z,2.40
2022-09-30T11:39:04.489Z,2.95
2022-09-30T11:41:49.572Z,3.22
2022-09-30T11:44:21.910Z,3.13
2022-09-30T11:46:51.509Z,2.35
2022-09-30T11:49:51.947Z,2.75
2022-09-30T11:52:37.037Z,2.50
2022-09-30T11:55:10.605Z,2.10
2022-09-30T11:57:56.417Z,2.17
2022-09-30T12:00:23.730Z,3.33
2022-09-30T12:02:59.158Z,3.30
2022-09-30T12:05:35.841Z,2.65
2022-09-30T12:08:17.825Z,2.30
2022-09-30T12:11:01.590Z,3.40
2022-09-30T12:13:37.340Z,2.78
2022-09-30T12:16:14.865Z,2.67
2022-09-30T12:18:46.292Z,1.88
2022-09-30T12:21:22.313Z,2.25
2022-09-30T12:24:11.946Z,2.40
2022-09-30T12:26:41.797Z,2.28
2022-09-30T12:29:33.351Z,2.15
2022-09-30T12:32:09.356Z,1.83
2022-09-30T12:35:04.584Z,1.40
2022-09-30T12:37:56.350Z,1.90
2022-09-30T12:40:45.162Z,2.33
2022-09-30T12:43:38.104Z,1.88
2022-09-30T12:46:49.883Z,2.17
2022-09-30T12:49:21.650Z,1.58
2022-09-30T12:51:57.779Z,1.50
2022-09-30T12:54:39.127Z,1.38
2022-09-30T12:57:09.355Z,1.45
2022-09-30T12:59:48.214Z,1.63
2022-09-30T13:02:40.397Z,1.90
2022-09-30T13:05:27.334Z,2.00
2022-09-30T13:08:06.902Z,1.70
2022-09-30T13:10:40.032Z,1.70
2022-09-30T13:13:26.785Z,1.60
2022-09-30T13:16:03.577Z,2.10
2022-09-30T13:18:30.773Z,2.28
2022-09-30T13:21:08.005Z,2.10
2022-09-30T13:23:41.175Z,2.08
2022-09-30T13:26:38.525Z,1.98
2022-09-30T13:29:06.214Z,1.70
2022-09-30T13:31:52.988Z,2.30
2022-09-30T13:34:24.176Z,1.92
2022-09-30T13:36:51.161Z,2.13
2022-09-30T13:39:46.438Z,1.80
2022-09-30T13:42:17.961Z,2.33
2022-09-30T13:45:03.534Z,2.28
2022-09-30T13:47:35.845Z,2.38
2022-09-30T13:50:18.506Z,2.53
2022-09-30T13:52:58.981Z,2.00
2022-09-30T13:55:50.361Z,2.38
2022-09-30T13:58:20.196Z,1.73
2022-09-30T14:00:56.211Z,2.20
2022-09-30T14:03:56.900Z,2.00
2022-09-30T14:06:42.118Z,1.60
2022-09-30T14:09:18.921Z,1.70
2022-09-30T14:11:59.297Z,1.90
2022-09-30T14:14:53.266Z,2.00
2022-09-30T14:17:52.561Z,1.70
2022-09-30T14:20:41.713Z,2.17
2022-09-30T14:23:16.489Z,2.10
2022-09-30T14:26:21.945Z,1.52
2022-09-30T14:28:58.802Z,1.80
2022-09-30T14:31:25.884Z,1.58
2022-09-30T14:33:53.069Z,1.38
2022-09-30T14:36:22.442Z,1.42
2022-09-30T14:38:53.720Z,1.05
2022-09-30T14:41:23.814Z,1.40
2022-09-30T14:43:55.372Z,1.27
2022-09-30T14:46:34.685Z,0.88
2022-09-30T14:49:09.935Z,1.45
2022-09-30T14:51:43.599Z,1.30
2022-09-30T14:54:20.788Z,1.70
2022-09-30T14:56:49.661Z,1.60
2022-09-30T14:59:24.879Z,1.70
2022-09-30T15:02:13.203Z,2.15
2022-09-30T15:04:46.903Z,1.60
2022-09-30T15:07:14.051Z,1.40
2022-09-30T15:09:44.270Z,1.15
2022-09-30T15:12:21.685Z,1.60
2022-09-30T15:14:54.485Z,1.40
2022-09-30T15:17:27.223Z,1.02
2022-09-30T15:19:56.041Z,1.30
2022-09-30T15:22:26.568Z,1.50
2022-09-30T15:24:54.636Z,1.58
2022-09-30T15:27:26.058Z,1.45
2022-09-30T15:30:03.681Z,1.50
2022-09-30T15:32:34.338Z,1.63
2022-09-30T15:35:24.071Z,1.65
2022-09-30T15:37:52.344Z,1.63
2022-09-30T15:40:43.305Z,1.17
2022-09-30T15:43:15.646Z,1.30
2022-09-30T15:45:48.646Z,1.20
2022-09-30T15:48:23.620Z,1.50
2022-09-30T15:50:59.436Z,1.17
2022-09-30T15:53:29.962Z,1.38
2022-09-30T15:56:15.832Z,1.20
2022-09-30T15:58:58.134Z,1.40
2022-09-30T16:01:26.921Z,1.30
2022-09-30T16:03:56.993Z,1.40
2022-09-30T16:06:37.551Z,1.35
2022-09-30T16:09:06.838Z,1.38
2022-09-30T16:11:41.870Z,1.10
2022-09-30T16:14:27.719Z,1.10
2022-09-30T16:16:58.408Z,1.85
2022-09-30T16:19:27.003Z,1.30
2022-09-30T16:21:55.273Z,1.63
2022-09-30T16:24:25.666Z,1.23
2022-09-30T16:26:55.750Z,1.40
2022-09-30T16:29:24.551Z,1.50
2022-09-30T16:31:54.437Z,1.60
2022-09-30T16:34:27.696Z,1.95
2022-09-30T16:37:03.464Z,1.38
2022-09-30T16:39:30.846Z,1.48
2022-09-30T16:41:57.748Z,1.35
2022-09-30T16:44:25.065Z,1.42
2022-09-30T16:46:52.241Z,1.80
2022-09-30T16:49:20.536Z,1.30
2022-09-30T16:51:47.920Z,1.70
2022-09-30T16:54:15.268Z,1.45
2022-09-30T16:56:42.623Z,1.60
2022-09-30T16:59:17.993Z,2.42
2022-09-30T17:01:45.307Z,2.78
2022-09-30T17:04:15.261Z,2.80
2022-09-30T17:06:44.679Z,2.10
2022-09-30T17:09:11.686Z,2.63
2022-09-30T17:11:38.578Z,1.83
2022-09-30T17:14:06.148Z,3.15
2022-09-30T17:16:33.523Z,3.30
2022-09-30T17:19:01.797Z,2.90
2022-09-30T17:21:28.738Z,2.33
2022-09-30T17:23:56.242Z,2.80
2022-09-30T17:26:23.584Z,2.70
2022-09-30T17:28:51.193Z,2.97
2022-09-30T17:31:18.128Z,3.25
2022-09-30T17:33:45.398Z,2.72
2022-09-30T17:36:14.365Z,1.77
2022-09-30T17:38:41.564Z,1.70
2022-09-30T17:41:31.754Z,1.40
2022-09-30T17:44:02.637Z,1.75
2022-09-30T17:46:43.803Z,3.30
2022-09-30T17:49:21.896Z,1.80
2022-09-30T17:51:50.839Z,1.52
2022-09-30T17:54:20.941Z,1.63
2022-09-30T17:56:47.942Z,1.85
2022-09-30T17:59:15.001Z,2.40
2022-09-30T18:01:42.223Z,2.20
2022-09-30T18:04:09.064Z,2.53
2022-09-30T18:06:35.925Z,1.83
2022-09-30T18:09:02.933Z,2.05
2022-09-30T18:11:31.209Z,2.08
2022-09-30T18:13:59.787Z,2.30
2022-09-30T18:16:30.977Z,1.90
2022-09-30T18:19:04.239Z,1.90
2022-09-30T18:21:32.585Z,2.38
2022-09-30T18:24:00.558Z,2.22
2022-09-30T18:26:33.245Z,2.63
2022-09-30T18:29:02.436Z,2.10
2022-09-30T18:31:34.945Z,2.38
2022-09-30T18:34:04.815Z,3.00
2022-09-30T18:36:32.673Z,2.40
2022-09-30T18:39:01.278Z,2.83
2022-09-30T18:41:30.668Z,4.07
2022-09-30T18:44:02.852Z,2.25
2022-09-30T18:46:31.396Z,2.85
2022-09-30T18:48:58.359Z,7.03
2022-09-30T18:51:25.681Z,2.50
2022-09-30T18:54:00.753Z,2.65
2022-09-30T18:56:32.571Z,2.25
2022-09-30T18:59:04.729Z,1.85
2022-09-30T19:01:34.141Z,2.00
2022-09-30T19:04:04.984Z,2.08
2022-09-30T19:06:32.968Z,2.10
2022-09-30T19:08:59.751Z,2.20
2022-09-30T19:11:28.018Z,2.20
2022-09-30T19:14:01.502Z,2.53
2022-09-30T19:16:35.272Z,1.95
2022-09-30T19:19:05.181Z,2.20
2022-09-30T19:21:36.445Z,1.80
2022-09-30T19:24:04.793Z,2.22
2022-09-30T19:26:33.851Z,1.80
2022-09-30T19:29:01.071Z,2.10
2022-09-30T19:31:28.698Z,1.92
2022-09-30T19:33:57.104Z,2.00
2022-09-30T19:36:27.043Z,1.90
2022-09-30T19:39:09.923Z,1.88
2022-09-30T19:41:38.083Z,2.35
2022-09-30T19:44:05.080Z,2.00
2022-09-30T19:46:32.666Z,2.17
2022-09-30T19:48:59.577Z,1.92
2022-09-30T19:51:29.266Z,2.40
2022-09-30T19:54:05.366Z,3.08
2022-09-30T19:56:36.020Z,6.05
2022-09-30T19:59:03.932Z,9.43
2022-09-30T20:01:34.310Z,9.35
2022-09-30T20:04:05.033Z,6.88
2022-09-30T20:06:33.481Z,4.22
2022-09-30T20:09:02.558Z,2.60
2022-09-30T20:11:36.089Z,2.70
2022-09-30T20:14:24.027Z,2.60
2022-09-30T20:16:51.653Z,3.22
2022-09-30T20:19:19.366Z,2.78
2022-09-30T20:21:47.416Z,2.47
2022-09-30T20:24:16.705Z,2.60
2022-09-30T20:26:46.701Z,2.58
2022-09-30T20:29:14.152Z,2.67
2022-09-30T20:31:42.877Z,2.40
2022-09-30T20:34:16.528Z,3.00
2022-09-30T20:36:45.131Z,3.10
2022-09-30T20:39:12.121Z,2.95
2022-09-30T20:41:39.918Z,3.00
2022-09-30T20:44:11.219Z,2.90
2022-09-30T20:46:39.337Z,3.50
2022-09-30T20:49:06.452Z,2.90
2022-09-30T20:51:34.039Z,3.15
2022-09-30T20:54:01.368Z,2.72
2022-09-30T20:56:44.147Z,2.85
2022-09-30T20:59:17.242Z,3.53
2022-09-30T21:01:44.450Z,3.40
2022-09-30T21:04:11.478Z,3.03
2022-09-30T21:06:38.413Z,3.33
2022-09-30T21:09:05.759Z,3.08
2022-09-30T21:11:52.423Z,3.33
2022-09-30T21:14:19.556Z,3.88
2022-09-30T21:16:46.551Z,3.65
2022-09-30T21:19:13.353Z,3.80
2022-09-30T21:21:40.218Z,3.70
2022-09-30T21:24:07.379Z,3.97
2022-09-30T21:26:35.571Z,4.50
2022-09-30T21:29:03.365Z,4.25
2022-09-30T21:31:30.759Z,4.80
2022-09-30T21:33:59.082Z,4.22
2022-09-30T21:36:27.732Z,4.30
2022-09-30T21:38:55.018Z,4.60
2022-09-30T21:41:22.802Z,4.57
2022-09-30T21:43:49.918Z,4.25
2022-09-30T21:46:18.563Z,4.40
2022-09-30T21:48:46.111Z,4.68
2022-09-30T21:51:14.038Z,4.65
2022-09-30T21:53:42.042Z,5.03
2022-09-30T21:56:12.327Z,5.03
2022-09-30T21:58:39.680Z,4.80
2022-09-30T22:01:07.523Z,4.78
2022-09-30T22:03:37.994Z,5.18
2022-09-30T22:06:09.298Z,4.93
2022-09-30T22:08:40.927Z,5.72
2022-09-30T22:11:28.438Z,5.45
2022-09-30T22:13:57.122Z,5.80
2022-09-30T22:16:27.117Z,5.50
2022-09-30T22:18:56.218Z,6.03
2022-09-30T22:21:23.784Z,5.60
2022-09-30T22:23:50.788Z,5.57
2022-09-30T22:26:20.844Z,6.53
2022-09-30T22:28:53.061Z,5.65
2022-09-30T22:31:22.772Z,6.53
2022-09-30T22:34:11.055Z,6.68
2022-09-30T22:36:57.216Z,5.47
2022-09-30T22:39:24.957Z,5.97
2022-09-30T22:41:53.979Z,6.07
2022-09-30T22:44:29.836Z,6.72
2022-09-30T22:47:00.496Z,6.10
2022-09-30T22:49:44.264Z,5.68
2022-09-30T22:52:11.277Z,5.88
2022-09-30T22:54:38.252Z,6.57
2022-09-30T22:57:07.829Z,6.30
2022-09-30T22:59:36.218Z,6.90
2022-09-30T23:02:05.056Z,6.97
2022-09-30T23:04:32.684Z,6.60
2022-09-30T23:07:00.612Z,7.10
2022-09-30T23:09:27.826Z,7.40
2022-09-30T23:11:57.023Z,6.63
2022-09-30T23:14:24.157Z,7.35
2022-09-30T23:16:51.552Z,6.75
2022-09-30T23:19:19.286Z,7.10
2022-09-30T23:21:46.291Z,6.95
2022-09-30T23:24:13.238Z,6.18
2022-09-30T23:26:40.578Z,6.95
2022-09-30T23:29:10.853Z,6.38
2022-09-30T23:31:38.280Z,5.47
2022-09-30T23:34:05.491Z,6.38
2022-09-30T23:36:36.717Z,6.18
2022-09-30T23:39:19.449Z,6.85
2022-09-30T23:41:47.578Z,5.70
2022-09-30T23:44:18.843Z,6.88
2022-09-30T23:47:05.756Z,5.20
2022-09-30T23:49:35.737Z,6.20
2022-09-30T23:52:04.757Z,5.68
2022-09-30T23:54:31.961Z,6.35
2022-09-30T23:56:58.857Z,6.28
2022-09-30T23:59:25.889Z,5.93
